sensor_id;sensor_type;location;lat;lon;timestamp;P1;durP1;ratioP1;P2;durP2;ratioP2
68700;SDS011;55682;51.114;5.882;2023-04-01T00:02:07;1.07;;;0.83;;
68700;SDS011;55682;51.114;5.882;2023-04-01T00:04:32;1.39;;;1.08;;
68700;SDS011;55682;51.114;5.882;2023-04-01T00:06:58;0.91;;;0.71;;
68700;SDS011;55682;51.114;5.882;2023-04-01T00:09:25;1.17;;;0.93;;
68700;SDS011;55682;51.114;5.882;2023-04-01T00:11:51;1.18;;;0.94;;
68700;SDS011;55682;51.114;5.882;2023-04-01T00:14:16;1.05;;;0.86;;
68700;SDS011;55682;51.114;5.882;2023-04-01T00:16:42;1.15;;;0.96;;
68700;SDS011;55682;51.114;5.882;2023-04-01T00:19:08;0.85;;;0.70;;
68700;SDS011;55682;51.114;5.882;2023-04-01T00:21:33;0.99;;;0.81;;
68700;SDS011;55682;51.114;5.882;2023-04-01T00:23:59;0.81;;;0.67;;
68700;SDS011;55682;51.114;5.882;2023-04-01T00:26:25;0.88;;;0.73;;
68700;SDS011;55682;51.114;5.882;2023-04-01T00:28:51;0.95;;;0.78;;
68700;SDS011;55682;51.114;5.882;2023-04-01T00:31:17;1.01;;;0.83;;
68700;SDS011;55682;51.114;5.882;2023-04-01T00:33:43;1.15;;;0.94;;
68700;SDS011;55682;51.114;5.882;2023-04-01T00:36:12;1.23;;;1.00;;
68700;SDS011;55682;51.114;5.882;2023-04-01T00:38:41;1.08;;;0.88;;
68700;SDS011;55682;51.114;5.882;2023-04-01T00:41:07;1.00;;;0.83;;
68700;SDS011;55682;51.114;5.882;2023-04-01T00:43:34;1.03;;;0.86;;
68700;SDS011;55682;51.114;5.882;2023-04-01T00:46:00;0.90;;;0.75;;
68700;SDS011;55682;51.114;5.882;2023-04-01T00:48:28;0.93;;;0.76;;
68700;SDS011;55682;51.114;5.882;2023-04-01T00:51:02;0.95;;;0.77;;
68700;SDS011;55682;51.114;5.882;2023-04-01T00:53:36;0.95;;;0.77;;
68700;SDS011;55682;51.114;5.882;2023-04-01T00:56:07;0.88;;;0.72;;
68700;SDS011;55682;51.114;5.882;2023-04-01T00:58:42;0.87;;;0.71;;
68700;SDS011;55682;51.114;5.882;2023-04-01T01:01:20;0.80;;;0.64;;
68700;SDS011;55682;51.114;5.882;2023-04-01T01:03:48;0.74;;;0.61;;
68700;SDS011;55682;51.114;5.882;2023-04-01T01:11:46;0.90;;;0.74;;
68700;SDS011;55682;51.114;5.882;2023-04-01T01:16:58;0.80;;;0.66;;
68700;SDS011;55682;51.114;5.882;2023-04-01T01:20:09;0.91;;;0.74;;
68700;SDS011;55682;51.114;5.882;2023-04-01T01:36:22;0.66;;;0.55;;
68700;SDS011;55682;51.114;5.882;2023-04-01T01:38:56;1.14;;;0.93;;
68700;SDS011;55682;51.114;5.882;2023-04-01T01:41:23;0.90;;;0.75;;
68700;SDS011;55682;51.114;5.882;2023-04-01T01:43:52;0.77;;;0.64;;
68700;SDS011;55682;51.114;5.882;2023-04-01T01:46:23;0.78;;;0.66;;
68700;SDS011;55682;51.114;5.882;2023-04-01T01:48:52;0.82;;;0.71;;
68700;SDS011;55682;51.114;5.882;2023-04-01T01:51:21;0.76;;;0.67;;
68700;SDS011;55682;51.114;5.882;2023-04-01T01:53:49;0.85;;;0.75;;
68700;SDS011;55682;51.114;5.882;2023-04-01T01:56:17;0.92;;;0.80;;
68700;SDS011;55682;51.114;5.882;2023-04-01T01:58:49;0.92;;;0.81;;
68700;SDS011;55682;51.114;5.882;2023-04-01T02:01:25;0.93;;;0.83;;
68700;SDS011;55682;51.114;5.882;2023-04-01T02:04:00;1.06;;;0.94;;
68700;SDS011;55682;51.114;5.882;2023-04-01T02:06:28;1.05;;;0.93;;
68700;SDS011;55682;51.114;5.882;2023-04-01T02:09:04;0.86;;;0.77;;
68700;SDS011;55682;51.114;5.882;2023-04-01T02:11:51;0.76;;;0.69;;
68700;SDS011;55682;51.114;5.882;2023-04-01T02:14:25;0.90;;;0.83;;
68700;SDS011;55682;51.114;5.882;2023-04-01T02:17:04;0.72;;;0.67;;
68700;SDS011;55682;51.114;5.882;2023-04-01T02:19:37;0.62;;;0.57;;
68700;SDS011;55682;51.114;5.882;2023-04-01T02:22:11;0.71;;;0.66;;
68700;SDS011;55682;51.114;5.882;2023-04-01T02:24:41;0.78;;;0.72;;
68700;SDS011;55682;51.114;5.882;2023-04-01T02:27:10;0.64;;;0.58;;
68700;SDS011;55682;51.114;5.882;2023-04-01T02:29:36;0.70;;;0.62;;
68700;SDS011;55682;51.114;5.882;2023-04-01T02:32:05;0.61;;;0.55;;
68700;SDS011;55682;51.114;5.882;2023-04-01T02:34:34;0.60;;;0.54;;
68700;SDS011;55682;51.114;5.882;2023-04-01T02:37:00;0.67;;;0.60;;
68700;SDS011;55682;51.114;5.882;2023-04-01T02:39:27;0.80;;;0.72;;
68700;SDS011;55682;51.114;5.882;2023-04-01T02:41:52;0.56;;;0.51;;
68700;SDS011;55682;51.114;5.882;2023-04-01T02:44:18;0.59;;;0.54;;
68700;SDS011;55682;51.114;5.882;2023-04-01T02:46:44;0.63;;;0.57;;
68700;SDS011;55682;51.114;5.882;2023-04-01T02:49:10;0.63;;;0.58;;
68700;SDS011;55682;51.114;5.882;2023-04-01T02:51:36;0.69;;;0.63;;
68700;SDS011;55682;51.114;5.882;2023-04-01T02:54:02;0.53;;;0.49;;
68700;SDS011;55682;51.114;5.882;2023-04-01T02:56:27;0.61;;;0.56;;
68700;SDS011;55682;51.114;5.882;2023-04-01T02:58:53;0.73;;;0.68;;
68700;SDS011;55682;51.114;5.882;2023-04-01T03:01:19;0.77;;;0.72;;
68700;SDS011;55682;51.114;5.882;2023-04-01T03:03:46;0.67;;;0.62;;
68700;SDS011;55682;51.114;5.882;2023-04-01T03:06:12;0.60;;;0.56;;
68700;SDS011;55682;51.114;5.882;2023-04-01T03:08:40;0.74;;;0.69;;
68700;SDS011;55682;51.114;5.882;2023-04-01T03:11:06;0.75;;;0.71;;
68700;SDS011;55682;51.114;5.882;2023-04-01T03:13:34;0.77;;;0.74;;
68700;SDS011;55682;51.114;5.882;2023-04-01T03:15:59;0.72;;;0.69;;
68700;SDS011;55682;51.114;5.882;2023-04-01T03:18:25;0.63;;;0.63;;
68700;SDS011;55682;51.114;5.882;2023-04-01T03:20:51;0.69;;;0.69;;
68700;SDS011;55682;51.114;5.882;2023-04-01T03:23:16;0.71;;;0.71;;
68700;SDS011;55682;51.114;5.882;2023-04-01T03:25:44;0.66;;;0.66;;
68700;SDS011;55682;51.114;5.882;2023-04-01T03:28:10;0.62;;;0.62;;
68700;SDS011;55682;51.114;5.882;2023-04-01T03:30:37;0.63;;;0.63;;
68700;SDS011;55682;51.114;5.882;2023-04-01T03:33:03;0.59;;;0.59;;
68700;SDS011;55682;51.114;5.882;2023-04-01T03:35:30;0.83;;;0.83;;
68700;SDS011;55682;51.114;5.882;2023-04-01T03:37:56;0.83;;;0.83;;
68700;SDS011;55682;51.114;5.882;2023-04-01T03:40:22;0.75;;;0.75;;
68700;SDS011;55682;51.114;5.882;2023-04-01T03:42:48;1.00;;;1.00;;
68700;SDS011;55682;51.114;5.882;2023-04-01T03:45:14;1.29;;;1.28;;
68700;SDS011;55682;51.114;5.882;2023-04-01T03:47:40;1.04;;;1.04;;
68700;SDS011;55682;51.114;5.882;2023-04-01T03:50:06;1.09;;;1.09;;
68700;SDS011;55682;51.114;5.882;2023-04-01T03:52:33;1.61;;;1.60;;
68700;SDS011;55682;51.114;5.882;2023-04-01T03:55:00;1.07;;;1.07;;
68700;SDS011;55682;51.114;5.882;2023-04-01T03:57:27;0.86;;;0.86;;
68700;SDS011;55682;51.114;5.882;2023-04-01T03:59:56;0.82;;;0.82;;
68700;SDS011;55682;51.114;5.882;2023-04-01T04:02:22;0.74;;;0.74;;
68700;SDS011;55682;51.114;5.882;2023-04-01T04:04:48;0.84;;;0.84;;
68700;SDS011;55682;51.114;5.882;2023-04-01T04:07:13;0.87;;;0.87;;
68700;SDS011;55682;51.114;5.882;2023-04-01T04:09:57;1.04;;;1.04;;
68700;SDS011;55682;51.114;5.882;2023-04-01T04:12:23;0.97;;;0.97;;
68700;SDS011;55682;51.114;5.882;2023-04-01T04:14:48;1.11;;;1.11;;
68700;SDS011;55682;51.114;5.882;2023-04-01T04:17:14;1.11;;;1.11;;
68700;SDS011;55682;51.114;5.882;2023-04-01T04:19:42;1.22;;;1.21;;
68700;SDS011;55682;51.114;5.882;2023-04-01T04:22:08;1.06;;;1.06;;
68700;SDS011;55682;51.114;5.882;2023-04-01T04:24:34;0.91;;;0.91;;
68700;SDS011;55682;51.114;5.882;2023-04-01T04:27:06;0.93;;;0.93;;
68700;SDS011;55682;51.114;5.882;2023-04-01T04:29:33;1.07;;;1.07;;
68700;SDS011;55682;51.114;5.882;2023-04-01T04:31:59;0.89;;;0.88;;
68700;SDS011;55682;51.114;5.882;2023-04-01T04:34:25;0.97;;;0.97;;
68700;SDS011;55682;51.114;5.882;2023-04-01T04:36:51;1.06;;;1.06;;
68700;SDS011;55682;51.114;5.882;2023-04-01T04:39:17;1.06;;;1.06;;
68700;SDS011;55682;51.114;5.882;2023-04-01T04:41:43;0.99;;;0.99;;
68700;SDS011;55682;51.114;5.882;2023-04-01T04:44:09;1.24;;;1.24;;
68700;SDS011;55682;51.114;5.882;2023-04-01T04:46:34;1.24;;;1.24;;
68700;SDS011;55682;51.114;5.882;2023-04-01T04:49:10;1.41;;;1.41;;
68700;SDS011;55682;51.114;5.882;2023-04-01T04:51:36;1.43;;;1.43;;
68700;SDS011;55682;51.114;5.882;2023-04-01T04:54:02;1.41;;;1.41;;
68700;SDS011;55682;51.114;5.882;2023-04-01T04:56:42;1.35;;;1.35;;
68700;SDS011;55682;51.114;5.882;2023-04-01T04:59:10;1.46;;;1.46;;
68700;SDS011;55682;51.114;5.882;2023-04-01T05:01:48;1.53;;;1.53;;
68700;SDS011;55682;51.114;5.882;2023-04-01T05:04:14;1.39;;;1.39;;
68700;SDS011;55682;51.114;5.882;2023-04-01T05:06:40;1.36;;;1.36;;
68700;SDS011;55682;51.114;5.882;2023-04-01T05:09:05;1.38;;;1.38;;
68700;SDS011;55682;51.114;5.882;2023-04-01T05:11:31;1.55;;;1.55;;
68700;SDS011;55682;51.114;5.882;2023-04-01T05:13:56;1.42;;;1.42;;
68700;SDS011;55682;51.114;5.882;2023-04-01T05:16:22;1.15;;;1.15;;
68700;SDS011;55682;51.114;5.882;2023-04-01T05:18:48;1.21;;;1.21;;
68700;SDS011;55682;51.114;5.882;2023-04-01T05:21:14;1.08;;;1.08;;
68700;SDS011;55682;51.114;5.882;2023-04-01T05:23:40;1.18;;;1.18;;
68700;SDS011;55682;51.114;5.882;2023-04-01T05:26:08;1.22;;;1.22;;
68700;SDS011;55682;51.114;5.882;2023-04-01T05:28:38;1.02;;;1.02;;
68700;SDS011;55682;51.114;5.882;2023-04-01T05:31:05;1.06;;;1.06;;
68700;SDS011;55682;51.114;5.882;2023-04-01T05:33:38;1.31;;;1.31;;
68700;SDS011;55682;51.114;5.882;2023-04-01T05:38:34;1.16;;;1.16;;
68700;SDS011;55682;51.114;5.882;2023-04-01T05:41:00;1.43;;;1.43;;
68700;SDS011;55682;51.114;5.882;2023-04-01T05:43:29;1.46;;;1.46;;
68700;SDS011;55682;51.114;5.882;2023-04-01T05:45:58;1.31;;;1.31;;
68700;SDS011;55682;51.114;5.882;2023-04-01T05:48:40;1.30;;;1.30;;
68700;SDS011;55682;51.114;5.882;2023-04-01T05:51:06;1.18;;;1.18;;
68700;SDS011;55682;51.114;5.882;2023-04-01T05:53:31;1.16;;;1.16;;
68700;SDS011;55682;51.114;5.882;2023-04-01T05:56:01;1.37;;;1.37;;
68700;SDS011;55682;51.114;5.882;2023-04-01T05:58:28;1.31;;;1.31;;
68700;SDS011;55682;51.114;5.882;2023-04-01T06:01:00;1.31;;;1.31;;
68700;SDS011;55682;51.114;5.882;2023-04-01T06:03:30;1.25;;;1.25;;
68700;SDS011;55682;51.114;5.882;2023-04-01T06:05:56;1.41;;;1.41;;
68700;SDS011;55682;51.114;5.882;2023-04-01T06:08:21;1.30;;;1.30;;
68700;SDS011;55682;51.114;5.882;2023-04-01T06:21:53;1.31;;;1.31;;
68700;SDS011;55682;51.114;5.882;2023-04-01T06:35:36;1.27;;;1.27;;
68700;SDS011;55682;51.114;5.882;2023-04-01T06:41:50;1.25;;;1.25;;
68700;SDS011;55682;51.114;5.882;2023-04-01T06:44:16;1.28;;;1.28;;
68700;SDS011;55682;51.114;5.882;2023-04-01T06:47:09;1.33;;;1.33;;
68700;SDS011;55682;51.114;5.882;2023-04-01T06:55:52;1.70;;;1.70;;
68700;SDS011;55682;51.114;5.882;2023-04-01T06:58:49;1.52;;;1.52;;
68700;SDS011;55682;51.114;5.882;2023-04-01T07:01:29;1.36;;;1.36;;
68700;SDS011;55682;51.114;5.882;2023-04-01T07:04:05;1.65;;;1.65;;
68700;SDS011;55682;51.114;5.882;2023-04-01T07:06:40;1.54;;;1.54;;
68700;SDS011;55682;51.114;5.882;2023-04-01T07:09:16;1.53;;;1.53;;
68700;SDS011;55682;51.114;5.882;2023-04-01T07:12:15;1.63;;;1.63;;
68700;SDS011;55682;51.114;5.882;2023-04-01T07:15:30;1.70;;;1.70;;
68700;SDS011;55682;51.114;5.882;2023-04-01T07:18:14;1.63;;;1.63;;
68700;SDS011;55682;51.114;5.882;2023-04-01T07:20:44;1.70;;;1.70;;
68700;SDS011;55682;51.114;5.882;2023-04-01T07:23:16;1.75;;;1.75;;
68700;SDS011;55682;51.114;5.882;2023-04-01T07:25:56;1.94;;;1.94;;
68700;SDS011;55682;51.114;5.882;2023-04-01T07:28:32;1.82;;;1.82;;
68700;SDS011;55682;51.114;5.882;2023-04-01T07:33:54;1.79;;;1.79;;
68700;SDS011;55682;51.114;5.882;2023-04-01T07:36:44;1.66;;;1.66;;
68700;SDS011;55682;51.114;5.882;2023-04-01T07:56:23;1.36;;;1.36;;
68700;SDS011;55682;51.114;5.882;2023-04-01T08:04:40;1.45;;;1.45;;
68700;SDS011;55682;51.114;5.882;2023-04-01T08:07:23;1.64;;;1.64;;
68700;SDS011;55682;51.114;5.882;2023-04-01T08:10:13;1.72;;;1.72;;
68700;SDS011;55682;51.114;5.882;2023-04-01T08:21:32;1.40;;;1.40;;
68700;SDS011;55682;51.114;5.882;2023-04-01T08:24:27;1.47;;;1.47;;
68700;SDS011;55682;51.114;5.882;2023-04-01T08:27:13;1.39;;;1.39;;
68700;SDS011;55682;51.114;5.882;2023-04-01T08:29:55;1.37;;;1.37;;
68700;SDS011;55682;51.114;5.882;2023-04-01T08:32:30;1.47;;;1.47;;
68700;SDS011;55682;51.114;5.882;2023-04-01T08:37:46;1.53;;;1.53;;
68700;SDS011;55682;51.114;5.882;2023-04-01T08:54:48;1.32;;;1.32;;
68700;SDS011;55682;51.114;5.882;2023-04-01T09:00:53;1.55;;;1.55;;
68700;SDS011;55682;51.114;5.882;2023-04-01T09:12:11;1.42;;;1.42;;
68700;SDS011;55682;51.114;5.882;2023-04-01T09:20:33;1.67;;;1.67;;
68700;SDS011;55682;51.114;5.882;2023-04-01T09:40:46;2.56;;;2.56;;
68700;SDS011;55682;51.114;5.882;2023-04-01T09:57:39;2.86;;;2.86;;
68700;SDS011;55682;51.114;5.882;2023-04-01T10:16:01;3.58;;;3.58;;
68700;SDS011;55682;51.114;5.882;2023-04-01T10:21:22;3.67;;;3.67;;
68700;SDS011;55682;51.114;5.882;2023-04-01T10:24:12;3.52;;;3.52;;
68700;SDS011;55682;51.114;5.882;2023-04-01T11:27:39;3.27;;;3.27;;
68700;SDS011;55682;51.114;5.882;2023-04-01T11:36:04;2.96;;;2.96;;
68700;SDS011;55682;51.114;5.882;2023-04-01T11:53:32;4.56;;;4.56;;
68700;SDS011;55682;51.114;5.882;2023-04-01T12:15:03;3.14;;;3.14;;
68700;SDS011;55682;51.114;5.882;2023-04-01T12:20:22;2.93;;;2.93;;
68700;SDS011;55682;51.114;5.882;2023-04-01T12:26:04;2.68;;;2.68;;
68700;SDS011;55682;51.114;5.882;2023-04-01T12:41:58;2.61;;;2.61;;
68700;SDS011;55682;51.114;5.882;2023-04-01T13:09:55;2.24;;;2.24;;
68700;SDS011;55682;51.114;5.882;2023-04-01T13:28:36;3.46;;;3.46;;
68700;SDS011;55682;51.114;5.882;2023-04-01T13:37:08;4.39;;;4.39;;
68700;SDS011;55682;51.114;5.882;2023-04-01T13:39:52;4.35;;;4.35;;
68700;SDS011;55682;51.114;5.882;2023-04-01T13:42:53;4.44;;;4.44;;
68700;SDS011;55682;51.114;5.882;2023-04-01T13:45:42;4.17;;;4.17;;
68700;SDS011;55682;51.114;5.882;2023-04-01T14:04:47;3.34;;;3.34;;
68700;SDS011;55682;51.114;5.882;2023-04-01T14:10:23;3.44;;;3.44;;
68700;SDS011;55682;51.114;5.882;2023-04-01T14:13:12;3.81;;;3.81;;
68700;SDS011;55682;51.114;5.882;2023-04-01T14:15:50;3.76;;;3.76;;
68700;SDS011;55682;51.114;5.882;2023-04-01T14:21:29;3.71;;;3.71;;
68700;SDS011;55682;51.114;5.882;2023-04-01T14:32:29;3.91;;;3.91;;
68700;SDS011;55682;51.114;5.882;2023-04-01T14:46:41;3.67;;;3.67;;
68700;SDS011;55682;51.114;5.882;2023-04-01T14:49:36;3.53;;;3.53;;
68700;SDS011;55682;51.114;5.882;2023-04-01T14:52:27;8.17;;;8.17;;
68700;SDS011;55682;51.114;5.882;2023-04-01T14:55:01;3.57;;;3.57;;
68700;SDS011;55682;51.114;5.882;2023-04-01T14:58:07;3.38;;;3.38;;
68700;SDS011;55682;51.114;5.882;2023-04-01T15:00:41;3.13;;;3.13;;
68700;SDS011;55682;51.114;5.882;2023-04-01T15:11:42;3.24;;;3.24;;
68700;SDS011;55682;51.114;5.882;2023-04-01T15:19:57;3.16;;;3.16;;
68700;SDS011;55682;51.114;5.882;2023-04-01T15:25:36;3.10;;;3.10;;
68700;SDS011;55682;51.114;5.882;2023-04-01T15:31:14;3.15;;;3.15;;
68700;SDS011;55682;51.114;5.882;2023-04-01T15:33:45;3.14;;;3.14;;
68700;SDS011;55682;51.114;5.882;2023-04-01T15:36:37;2.78;;;2.78;;
68700;SDS011;55682;51.114;5.882;2023-04-01T15:39:15;2.88;;;2.88;;
68700;SDS011;55682;51.114;5.882;2023-04-01T15:41:53;2.92;;;2.92;;
68700;SDS011;55682;51.114;5.882;2023-04-01T15:44:54;3.07;;;3.07;;
68700;SDS011;55682;51.114;5.882;2023-04-01T15:47:35;3.20;;;3.20;;
68700;SDS011;55682;51.114;5.882;2023-04-01T15:50:28;2.99;;;2.99;;
68700;SDS011;55682;51.114;5.882;2023-04-01T15:59:13;3.02;;;3.02;;
68700;SDS011;55682;51.114;5.882;2023-04-01T16:02:00;3.09;;;3.09;;
68700;SDS011;55682;51.114;5.882;2023-04-01T16:07:47;2.86;;;2.86;;
68700;SDS011;55682;51.114;5.882;2023-04-01T16:21:57;2.72;;;2.72;;
68700;SDS011;55682;51.114;5.882;2023-04-01T16:27:13;2.68;;;2.68;;
68700;SDS011;55682;51.114;5.882;2023-04-01T16:30:00;2.59;;;2.59;;
68700;SDS011;55682;51.114;5.882;2023-04-01T16:32:52;2.79;;;2.79;;
68700;SDS011;55682;51.114;5.882;2023-04-01T16:41:25;2.20;;;2.20;;
68700;SDS011;55682;51.114;5.882;2023-04-01T16:44:08;2.05;;;2.05;;
68700;SDS011;55682;51.114;5.882;2023-04-01T16:46:57;1.57;;;1.57;;
68700;SDS011;55682;51.114;5.882;2023-04-01T16:57:31;1.66;;;1.66;;
68700;SDS011;55682;51.114;5.882;2023-04-01T17:00:19;1.63;;;1.63;;
68700;SDS011;55682;51.114;5.882;2023-04-01T17:03:14;1.86;;;1.86;;
68700;SDS011;55682;51.114;5.882;2023-04-01T17:05:57;1.91;;;1.91;;
68700;SDS011;55682;51.114;5.882;2023-04-01T17:08:59;2.31;;;2.31;;
68700;SDS011;55682;51.114;5.882;2023-04-01T17:11:56;2.55;;;2.55;;
68700;SDS011;55682;51.114;5.882;2023-04-01T17:14:42;2.45;;;2.45;;
68700;SDS011;55682;51.114;5.882;2023-04-01T17:21:02;2.54;;;2.54;;
68700;SDS011;55682;51.114;5.882;2023-04-01T17:28:47;3.34;;;3.34;;
68700;SDS011;55682;51.114;5.882;2023-04-01T17:42:25;3.79;;;3.79;;
68700;SDS011;55682;51.114;5.882;2023-04-01T17:56:03;4.13;;;4.13;;
68700;SDS011;55682;51.114;5.882;2023-04-01T17:58:44;4.04;;;4.04;;
68700;SDS011;55682;51.114;5.882;2023-04-01T18:08:58;4.08;;;4.08;;
68700;SDS011;55682;51.114;5.882;2023-04-01T18:19:53;3.25;;;3.25;;
68700;SDS011;55682;51.114;5.882;2023-04-01T18:22:36;3.27;;;3.27;;
68700;SDS011;55682;51.114;5.882;2023-04-01T18:25:28;2.92;;;2.92;;
68700;SDS011;55682;51.114;5.882;2023-04-01T18:31:05;3.19;;;3.19;;
68700;SDS011;55682;51.114;5.882;2023-04-01T18:33:48;3.15;;;3.15;;
68700;SDS011;55682;51.114;5.882;2023-04-01T18:39:41;3.27;;;3.27;;
68700;SDS011;55682;51.114;5.882;2023-04-01T18:45:08;3.21;;;3.21;;
68700;SDS011;55682;51.114;5.882;2023-04-01T18:47:47;3.43;;;3.43;;
68700;SDS011;55682;51.114;5.882;2023-04-01T18:50:41;2.95;;;2.95;;
68700;SDS011;55682;51.114;5.882;2023-04-01T18:53:13;3.17;;;3.17;;
68700;SDS011;55682;51.114;5.882;2023-04-01T18:55:50;3.00;;;3.00;;
68700;SDS011;55682;51.114;5.882;2023-04-01T19:01:02;3.29;;;3.29;;
68700;SDS011;55682;51.114;5.882;2023-04-01T19:03:57;3.07;;;3.07;;
68700;SDS011;55682;51.114;5.882;2023-04-01T19:09:50;3.05;;;3.05;;
68700;SDS011;55682;51.114;5.882;2023-04-01T19:25:55;4.49;;;4.49;;
68700;SDS011;55682;51.114;5.882;2023-04-01T19:31:22;4.56;;;4.56;;
68700;SDS011;55682;51.114;5.882;2023-04-01T19:37:11;4.38;;;4.38;;
68700;SDS011;55682;51.114;5.882;2023-04-01T19:40:14;4.49;;;4.49;;
68700;SDS011;55682;51.114;5.882;2023-04-01T19:42:44;4.41;;;4.41;;
68700;SDS011;55682;51.114;5.882;2023-04-01T19:50:31;4.97;;;4.97;;
68700;SDS011;55682;51.114;5.882;2023-04-01T19:53:29;5.11;;;5.11;;
68700;SDS011;55682;51.114;5.882;2023-04-01T19:56:12;4.86;;;4.86;;
68700;SDS011;55682;51.114;5.882;2023-04-01T20:04:48;3.95;;;3.95;;
68700;SDS011;55682;51.114;5.882;2023-04-01T20:10:06;3.15;;;3.15;;
68700;SDS011;55682;51.114;5.882;2023-04-01T20:12:59;2.95;;;2.95;;
68700;SDS011;55682;51.114;5.882;2023-04-01T20:15:34;2.69;;;2.69;;
68700;SDS011;55682;51.114;5.882;2023-04-01T20:18:15;2.77;;;2.77;;
68700;SDS011;55682;51.114;5.882;2023-04-01T20:20:57;2.70;;;2.70;;
68700;SDS011;55682;51.114;5.882;2023-04-01T20:23:50;2.57;;;2.57;;
68700;SDS011;55682;51.114;5.882;2023-04-01T20:26:33;2.67;;;2.67;;
68700;SDS011;55682;51.114;5.882;2023-04-01T20:51:14;3.17;;;3.14;;
68700;SDS011;55682;51.114;5.882;2023-04-01T20:53:50;2.98;;;2.98;;
68700;SDS011;55682;51.114;5.882;2023-04-01T21:13:16;3.92;;;3.92;;
68700;SDS011;55682;51.114;5.882;2023-04-01T21:27:16;3.80;;;3.80;;
68700;SDS011;55682;51.114;5.882;2023-04-01T21:41:22;4.16;;;4.16;;
68700;SDS011;55682;51.114;5.882;2023-04-01T21:44:42;4.12;;;4.12;;
68700;SDS011;55682;51.114;5.882;2023-04-01T21:55:05;3.94;;;3.94;;
68700;SDS011;55682;51.114;5.882;2023-04-01T21:57:52;3.68;;;3.68;;
68700;SDS011;55682;51.114;5.882;2023-04-01T22:01:11;3.66;;;3.66;;
68700;SDS011;55682;51.114;5.882;2023-04-01T22:06:22;3.77;;;3.77;;
68700;SDS011;55682;51.114;5.882;2023-04-01T22:09:07;3.99;;;3.99;;
68700;SDS011;55682;51.114;5.882;2023-04-01T22:14:55;3.83;;;3.83;;
68700;SDS011;55682;51.114;5.882;2023-04-01T22:17:32;3.69;;;3.69;;
68700;SDS011;55682;51.114;5.882;2023-04-01T22:23:01;3.39;;;3.39;;
68700;SDS011;55682;51.114;5.882;2023-04-01T22:25:56;3.12;;;3.12;;
68700;SDS011;55682;51.114;5.882;2023-04-01T22:28:55;3.33;;;3.33;;
68700;SDS011;55682;51.114;5.882;2023-04-01T22:31:53;2.87;;;2.87;;
68700;SDS011;55682;51.114;5.882;2023-04-01T22:43:04;3.14;;;3.14;;
68700;SDS011;55682;51.114;5.882;2023-04-01T22:45:48;3.47;;;3.47;;
68700;SDS011;55682;51.114;5.882;2023-04-01T22:51:22;3.26;;;3.26;;
68700;SDS011;55682;51.114;5.882;2023-04-01T22:56:49;2.79;;;2.79;;
68700;SDS011;55682;51.114;5.882;2023-04-01T23:02:18;3.01;;;3.01;;
68700;SDS011;55682;51.114;5.882;2023-04-01T23:04:54;3.20;;;3.20;;
68700;SDS011;55682;51.114;5.882;2023-04-01T23:07:27;3.16;;;3.16;;
68700;SDS011;55682;51.114;5.882;2023-04-01T23:10:39;3.37;;;3.37;;
68700;SDS011;55682;51.114;5.882;2023-04-01T23:13:06;3.27;;;3.27;;
68700;SDS011;55682;51.114;5.882;2023-04-01T23:15:41;3.56;;;3.56;;
68700;SDS011;55682;51.114;5.882;2023-04-01T23:28:39;3.25;;;3.25;;
68700;SDS011;55682;51.114;5.882;2023-04-01T23:33:58;3.57;;;3.57;;
68700;SDS011;55682;51.114;5.882;2023-04-01T23:36:27;3.70;;;3.70;;
68700;SDS011;55682;51.114;5.882;2023-04-01T23:38:55;3.96;;;3.96;;
68700;SDS011;55682;51.114;5.882;2023-04-01T23:41:30;4.08;;;4.08;;
68700;SDS011;55682;51.114;5.882;2023-04-01T23:43:59;4.26;;;4.26;;
68700;SDS011;55682;51.114;5.882;2023-04-01T23:46:33;4.19;;;4.19;;
68700;SDS011;55682;51.114;5.882;2023-04-01T23:49:01;4.64;;;4.64;;
68700;SDS011;55682;51.114;5.882;2023-04-01T23:51:38;4.69;;;4.69;;
68700;SDS011;55682;51.114;5.882;2023-04-01T23:54:17;4.42;;;4.42;;
68700;SDS011;55682;51.114;5.882;2023-04-01T23:56:52;4.42;;;4.42;;
68700;SDS011;55682;51.114;5.882;2023-04-01T23:59:28;4.23;;;4.23;;
